createdAt,value
2019-01-14T00:01:31.153Z,0.50
2019-01-14T00:04:05.009Z,0.90
2019-01-14T00:06:37.944Z,0.60
2019-01-14T00:09:13.469Z,0.80
2019-01-14T00:11:45.317Z,1.10
2019-01-14T00:14:16.843Z,0.50
2019-01-14T00:16:48.207Z,0.60
2019-01-14T00:19:18.857Z,0.50
2019-01-14T00:21:52.028Z,0.60
2019-01-14T00:24:24.788Z,0.60
2019-01-14T00:26:57.406Z,0.73
2019-01-14T00:29:28.868Z,0.60
2019-01-14T00:32:04.563Z,0.80
2019-01-14T00:34:37.462Z,0.90
2019-01-14T00:37:08.852Z,0.70
2019-01-14T00:39:40.537Z,0.70
2019-01-14T00:42:11.493Z,0.80
2019-01-14T00:44:43.035Z,0.80
2019-01-14T00:47:13.708Z,0.60
2019-01-14T00:49:46.035Z,0.80
2019-01-14T00:52:16.900Z,0.63
2019-01-14T00:54:48.526Z,0.67
2019-01-14T00:57:21.023Z,0.80
2019-01-14T00:59:51.701Z,0.80
2019-01-14T01:02:25.541Z,0.70
2019-01-14T01:04:58.023Z,0.60
2019-01-14T01:07:28.613Z,0.80
2019-01-14T01:10:01.967Z,0.80
2019-01-14T01:12:34.346Z,0.87
2019-01-14T01:15:06.247Z,0.50
2019-01-14T01:17:39.747Z,0.50
2019-01-14T01:20:11.810Z,0.50
2019-01-14T01:22:44.133Z,0.40
2019-01-14T01:25:14.912Z,0.40
2019-01-14T01:27:45.662Z,0.40
2019-01-14T01:30:18.136Z,0.30
2019-01-14T01:32:49.201Z,0.30
2019-01-14T01:35:20.078Z,0.40
2019-01-14T01:37:50.830Z,0.40
2019-01-14T01:40:22.946Z,0.50
2019-01-14T01:42:53.572Z,0.30
2019-01-14T01:45:24.311Z,0.40
2019-01-14T01:47:54.954Z,0.30
2019-01-14T01:50:25.618Z,0.40
2019-01-14T01:52:57.509Z,0.30
2019-01-14T01:55:28.467Z,0.60
2019-01-14T01:57:59.143Z,0.50
2019-01-14T02:00:30.741Z,0.47
2019-01-14T02:03:02.046Z,0.50
2019-01-14T02:05:35.352Z,0.50
2019-01-14T02:08:06.114Z,0.50
2019-01-14T02:10:41.051Z,0.40
2019-01-14T02:13:13.771Z,0.60
2019-01-14T02:15:44.313Z,0.50
2019-01-14T02:18:15.899Z,0.50
2019-01-14T02:20:46.391Z,0.50
2019-01-14T02:23:18.054Z,0.60
2019-01-14T02:25:48.600Z,0.50
2019-01-14T02:28:20.757Z,0.60
2019-01-14T02:30:54.538Z,0.73
2019-01-14T02:33:27.631Z,0.40
2019-01-14T02:36:00.450Z,0.50
2019-01-14T02:38:31.237Z,0.60
2019-01-14T02:41:01.956Z,0.60
2019-01-14T02:43:36.867Z,1.07
2019-01-14T02:46:07.926Z,0.60
2019-01-14T02:48:41.395Z,0.53
2019-01-14T02:51:13.087Z,0.40
2019-01-14T02:53:43.711Z,0.70
2019-01-14T02:56:15.571Z,0.83
2019-01-14T02:58:46.329Z,0.53
2019-01-14T03:01:17.043Z,0.50
2019-01-14T03:03:47.518Z,0.50
2019-01-14T03:06:17.966Z,0.50
2019-01-14T03:08:48.443Z,0.40
2019-01-14T03:11:19.190Z,0.50
2019-01-14T03:13:50.135Z,0.40
2019-01-14T03:16:23.583Z,0.43
2019-01-14T03:18:54.661Z,0.60
2019-01-14T03:21:25.187Z,0.37
2019-01-14T03:23:55.676Z,0.30
2019-01-14T03:26:26.136Z,0.40
2019-01-14T03:28:56.543Z,0.60
2019-01-14T03:31:27.109Z,0.50
2019-01-14T03:33:57.594Z,0.40
2019-01-14T03:36:28.058Z,0.40
2019-01-14T03:38:59.005Z,0.40
2019-01-14T03:41:29.801Z,0.47
2019-01-14T03:44:00.569Z,0.40
2019-01-14T03:46:31.145Z,0.63
2019-01-14T03:49:04.254Z,0.40
2019-01-14T03:51:36.829Z,0.57
2019-01-14T03:54:08.569Z,0.67
2019-01-14T03:56:38.977Z,0.30
2019-01-14T03:59:10.255Z,0.30
2019-01-14T04:01:40.692Z,0.40
2019-01-14T04:04:13.528Z,0.30
2019-01-14T04:06:44.511Z,0.57
2019-01-14T04:09:15.166Z,0.50
2019-01-14T04:11:45.791Z,0.50
2019-01-14T04:14:16.327Z,0.57
2019-01-14T04:16:47.956Z,0.50
2019-01-14T04:19:19.117Z,0.47
2019-01-14T04:21:50.802Z,0.60
2019-01-14T04:24:23.087Z,0.80
2019-01-14T04:26:55.294Z,0.60
2019-01-14T04:29:27.438Z,0.77
2019-01-14T04:31:57.983Z,0.80
2019-01-14T04:34:29.429Z,0.83
2019-01-14T04:36:59.973Z,0.60
2019-01-14T04:39:37.395Z,1.00
2019-01-14T04:42:09.917Z,0.60
2019-01-14T04:44:42.116Z,0.50
2019-01-14T04:47:13.690Z,1.00
2019-01-14T04:49:45.347Z,1.00
2019-01-14T04:52:16.674Z,0.73
2019-01-14T04:54:49.010Z,1.13
2019-01-14T04:57:20.422Z,1.00
2019-01-14T04:59:52.664Z,1.00
2019-01-14T05:02:24.703Z,0.77
2019-01-14T05:04:56.819Z,0.90
2019-01-14T05:07:30.187Z,1.10
2019-01-14T05:10:02.544Z,0.83
2019-01-14T05:12:34.755Z,1.13
2019-01-14T05:15:08.454Z,1.00
2019-01-14T05:17:40.093Z,1.00
2019-01-14T05:20:14.735Z,0.93
2019-01-14T05:22:46.370Z,0.93
2019-01-14T05:25:17.239Z,1.07
2019-01-14T05:27:47.695Z,1.47
2019-01-14T05:30:20.143Z,1.30
2019-01-14T05:32:51.147Z,1.30
2019-01-14T05:35:22.001Z,1.10
2019-01-14T05:37:52.811Z,1.37
2019-01-14T05:40:26.883Z,1.27
2019-01-14T05:42:57.570Z,1.03
2019-01-14T05:45:29.933Z,1.40
2019-01-14T05:48:01.700Z,1.17
2019-01-14T05:50:52.889Z,1.30
2019-01-14T05:53:23.709Z,1.30
2019-01-14T05:55:57.174Z,1.20
2019-01-14T05:58:31.144Z,0.97
2019-01-14T06:01:03.266Z,1.13
2019-01-14T06:03:34.018Z,1.03
2019-01-14T06:06:05.420Z,0.90
2019-01-14T06:08:38.385Z,1.37
2019-01-14T06:11:10.844Z,1.20
2019-01-14T06:13:41.647Z,1.20
2019-01-14T06:16:12.315Z,1.33
2019-01-14T06:18:42.771Z,1.37
2019-01-14T06:21:15.203Z,1.30
2019-01-14T06:23:45.931Z,1.17
2019-01-14T06:26:16.484Z,1.23
2019-01-14T06:28:47.033Z,1.00
2019-01-14T06:31:18.463Z,1.23
2019-01-14T06:33:48.951Z,0.87
2019-01-14T06:36:20.023Z,1.10
2019-01-14T06:38:50.655Z,1.10
2019-01-14T06:41:21.407Z,0.90
2019-01-14T06:43:53.729Z,0.90
2019-01-14T06:46:24.681Z,1.03
2019-01-14T06:48:55.107Z,0.60
2019-01-14T06:51:25.811Z,0.60
2019-01-14T06:53:56.568Z,1.07
2019-01-14T06:56:29.102Z,0.80
2019-01-14T06:59:00.141Z,0.80
2019-01-14T07:01:30.617Z,0.80
2019-01-14T07:04:01.108Z,0.80
2019-01-14T07:06:31.715Z,0.80
2019-01-14T07:09:03.877Z,0.73
2019-01-14T07:11:35.159Z,0.80
2019-01-14T07:14:07.820Z,0.70
2019-01-14T07:16:38.463Z,0.60
2019-01-14T07:19:12.794Z,0.70
2019-01-14T07:21:44.505Z,0.77
2019-01-14T07:24:15.065Z,0.70
2019-01-14T07:26:45.627Z,0.70
2019-01-14T07:29:16.041Z,0.90
2019-01-14T07:31:46.611Z,0.70
2019-01-14T07:34:17.055Z,0.80
2019-01-14T07:36:47.687Z,0.67
2019-01-14T07:39:18.192Z,0.90
2019-01-14T07:41:48.611Z,1.17
2019-01-14T07:44:19.821Z,0.73
2019-01-14T07:46:50.330Z,0.60
2019-01-14T07:49:20.992Z,0.70
2019-01-14T07:51:51.462Z,0.90
2019-01-14T07:54:21.917Z,0.97
2019-01-14T07:56:53.032Z,0.80
2019-01-14T07:59:23.428Z,0.80
2019-01-14T08:01:54.407Z,0.70
2019-01-14T08:04:24.973Z,1.23
2019-01-14T08:06:55.656Z,0.87
2019-01-14T08:09:28.930Z,1.23
2019-01-14T08:11:59.644Z,0.97
2019-01-14T08:14:31.111Z,1.17
2019-01-14T08:17:01.610Z,1.10
2019-01-14T08:19:32.297Z,1.27
2019-01-14T08:22:06.529Z,0.93
2019-01-14T08:24:39.427Z,1.20
2019-01-14T08:27:10.008Z,1.20
2019-01-14T08:29:40.688Z,0.90
2019-01-14T08:32:11.259Z,1.43
2019-01-14T08:34:42.614Z,1.30
2019-01-14T08:37:13.108Z,1.30
2019-01-14T08:39:43.717Z,1.30
2019-01-14T08:42:15.965Z,1.60
2019-01-14T08:44:46.441Z,0.90
2019-01-14T08:47:17.620Z,1.53
2019-01-14T08:49:48.283Z,1.50
2019-01-14T08:52:19.941Z,1.53
2019-01-14T08:54:50.550Z,1.13
2019-01-14T08:57:21.022Z,0.80
2019-01-14T08:59:51.529Z,1.63
2019-01-14T09:02:21.986Z,1.17
2019-01-14T09:04:52.709Z,1.33
2019-01-14T09:07:23.214Z,1.90
2019-01-14T09:09:53.987Z,1.27
2019-01-14T09:12:24.637Z,2.00
2019-01-14T09:14:55.208Z,1.20
2019-01-14T09:17:25.620Z,1.43
2019-01-14T09:19:56.304Z,1.37
2019-01-14T09:22:27.094Z,1.13
2019-01-14T09:24:57.551Z,1.10
2019-01-14T09:27:27.995Z,1.20
2019-01-14T09:29:58.400Z,1.13
2019-01-14T09:32:29.182Z,1.97
2019-01-14T09:34:59.764Z,1.23
2019-01-14T09:37:30.587Z,2.10
2019-01-14T09:40:01.127Z,1.17
2019-01-14T09:42:33.525Z,1.40
2019-01-14T09:45:03.871Z,1.70
2019-01-14T09:47:36.455Z,1.60
2019-01-14T09:50:17.220Z,0.90
2019-01-14T09:52:47.754Z,1.40
2019-01-14T09:55:19.295Z,1.00
2019-01-14T09:57:49.950Z,1.60
2019-01-14T10:00:20.479Z,1.80
2019-01-14T10:02:55.445Z,1.33
2019-01-14T10:05:23.613Z,1.40
2019-01-14T10:07:54.041Z,1.70
2019-01-14T10:10:28.719Z,1.50
2019-01-14T10:12:59.546Z,1.63
2019-01-14T10:15:34.969Z,1.30
2019-01-14T10:18:06.225Z,1.33
2019-01-14T10:20:40.073Z,1.30
2019-01-14T10:23:14.234Z,1.43
2019-01-14T10:25:45.364Z,2.10
2019-01-14T10:28:22.330Z,1.60
2019-01-14T10:30:52.851Z,1.10
2019-01-14T10:33:23.430Z,1.93
2019-01-14T10:35:59.561Z,1.40
2019-01-14T10:38:30.032Z,1.30
2019-01-14T10:41:03.138Z,1.27
2019-01-14T10:43:36.249Z,1.67
2019-01-14T10:46:08.756Z,1.03
2019-01-14T10:48:40.719Z,1.77
2019-01-14T10:51:14.962Z,1.67
2019-01-14T10:53:47.556Z,1.87
2019-01-14T10:56:18.146Z,2.20
2019-01-14T10:58:52.462Z,1.70
2019-01-14T11:01:23.684Z,1.80
2019-01-14T11:03:54.363Z,1.60
2019-01-14T11:06:24.897Z,1.73
2019-01-14T11:09:05.669Z,1.37
2019-01-14T11:11:33.779Z,1.47
2019-01-14T11:14:07.564Z,1.60
2019-01-14T11:16:41.503Z,1.77
2019-01-14T11:19:13.626Z,1.30
2019-01-14T11:21:44.157Z,1.60
2019-01-14T11:24:14.692Z,1.67
2019-01-14T11:26:47.172Z,2.13
2019-01-14T11:29:18.021Z,1.60
2019-01-14T11:31:48.593Z,1.73
2019-01-14T11:34:25.400Z,2.00
2019-01-14T11:36:56.363Z,1.70
2019-01-14T11:39:28.829Z,2.10
2019-01-14T11:42:02.541Z,1.50
2019-01-14T11:44:33.417Z,2.93
2019-01-14T11:47:06.674Z,1.67
2019-01-14T11:49:41.551Z,1.87
2019-01-14T11:52:13.607Z,2.20
2019-01-14T11:54:46.658Z,3.53
2019-01-14T11:57:17.267Z,1.50
2019-01-14T11:59:49.357Z,2.40
2019-01-14T12:02:22.428Z,2.33
2019-01-14T12:04:54.836Z,2.33
2019-01-14T12:07:25.469Z,3.10
2019-01-14T12:09:55.973Z,2.27
2019-01-14T12:12:26.868Z,1.40
2019-01-14T12:14:59.198Z,1.87
2019-01-14T12:17:30.818Z,1.73
2019-01-14T12:20:02.218Z,1.93
2019-01-14T12:22:32.677Z,1.47
2019-01-14T12:25:03.293Z,1.93
2019-01-14T12:27:36.068Z,1.60
2019-01-14T12:30:14.880Z,3.00
2019-01-14T12:32:45.330Z,1.77
2019-01-14T12:35:15.923Z,2.20
2019-01-14T12:37:46.463Z,1.90
2019-01-14T12:40:17.014Z,1.70
2019-01-14T12:42:47.423Z,1.87
2019-01-14T12:45:17.892Z,2.03
2019-01-14T12:47:49.020Z,1.90
2019-01-14T12:50:21.124Z,5.20
2019-01-14T12:52:51.534Z,2.10
2019-01-14T12:55:22.131Z,2.23
2019-01-14T12:57:52.694Z,2.13
2019-01-14T13:00:25.577Z,2.27
2019-01-14T13:02:58.583Z,2.03
2019-01-14T13:05:30.168Z,3.70
2019-01-14T13:08:02.621Z,3.27
2019-01-14T13:10:35.966Z,2.57
2019-01-14T13:13:06.500Z,2.33
2019-01-14T13:15:41.011Z,1.93
2019-01-14T13:18:11.553Z,1.80
2019-01-14T13:20:42.780Z,4.50
2019-01-14T13:23:13.249Z,1.70
2019-01-14T13:25:43.713Z,1.90
2019-01-14T13:28:14.337Z,1.93
2019-01-14T13:30:44.765Z,1.90
2019-01-14T13:33:15.551Z,1.77
2019-01-14T13:35:46.083Z,1.50
2019-01-14T13:38:17.674Z,1.60
2019-01-14T13:40:48.079Z,1.47
2019-01-14T13:43:18.621Z,1.43
2019-01-14T13:45:52.480Z,1.40
2019-01-14T13:48:21.383Z,1.90
2019-01-14T13:50:52.089Z,1.70
2019-01-14T13:53:22.609Z,2.10
2019-01-14T13:55:59.419Z,2.23
2019-01-14T13:58:28.764Z,1.70
2019-01-14T14:00:59.338Z,1.60
2019-01-14T14:03:29.776Z,1.57
2019-01-14T14:06:01.565Z,1.50
2019-01-14T14:08:32.069Z,2.17
2019-01-14T14:11:04.178Z,1.73
2019-01-14T14:13:36.847Z,1.70
2019-01-14T14:16:07.335Z,1.50
2019-01-14T14:18:40.825Z,2.30
2019-01-14T14:21:11.844Z,2.37
2019-01-14T14:23:42.500Z,2.87
2019-01-14T14:26:13.031Z,3.73
2019-01-14T14:28:43.525Z,2.67
2019-01-14T14:31:14.099Z,3.57
2019-01-14T14:33:44.633Z,3.70
2019-01-14T14:36:15.640Z,3.50
2019-01-14T14:38:46.143Z,2.30
2019-01-14T14:41:17.023Z,2.40
2019-01-14T14:43:47.612Z,2.70
2019-01-14T14:46:18.144Z,2.30
2019-01-14T14:48:48.837Z,2.93
2019-01-14T14:51:19.478Z,2.50
2019-01-14T14:53:49.992Z,1.93
2019-01-14T14:56:20.426Z,2.07
2019-01-14T14:58:52.036Z,2.53
2019-01-14T15:01:22.802Z,3.00
2019-01-14T15:03:53.370Z,2.70
2019-01-14T15:06:26.674Z,3.00
2019-01-14T15:08:57.975Z,2.60
2019-01-14T15:11:29.155Z,2.50
2019-01-14T15:13:59.589Z,2.60
2019-01-14T15:16:30.398Z,2.40
2019-01-14T15:19:01.961Z,2.70
2019-01-14T15:21:32.474Z,3.00
2019-01-14T15:24:03.156Z,2.73
2019-01-14T15:26:40.862Z,2.23
2019-01-14T15:29:11.636Z,1.50
2019-01-14T15:31:42.501Z,1.77
2019-01-14T15:34:13.029Z,1.67
2019-01-14T15:36:43.961Z,1.77
2019-01-14T15:39:16.335Z,2.00
2019-01-14T15:41:47.129Z,1.70
2019-01-14T15:44:17.655Z,1.57
2019-01-14T15:46:48.341Z,1.80
2019-01-14T15:49:19.066Z,1.60
2019-01-14T15:51:49.575Z,1.77
2019-01-14T15:54:20.045Z,2.10
2019-01-14T15:56:50.691Z,2.37
2019-01-14T15:59:21.602Z,1.67
2019-01-14T16:01:52.100Z,2.00
2019-01-14T16:04:23.070Z,1.50
2019-01-14T16:06:53.711Z,1.60
2019-01-14T16:09:24.196Z,2.47
2019-01-14T16:11:55.021Z,2.00
2019-01-14T16:14:25.505Z,1.90
2019-01-14T16:16:56.006Z,1.47
2019-01-14T16:19:26.421Z,2.43
2019-01-14T16:21:56.872Z,2.20
2019-01-14T16:24:27.329Z,2.60
2019-01-14T16:26:57.901Z,2.20
2019-01-14T16:29:28.712Z,2.67
2019-01-14T16:31:59.276Z,2.60
2019-01-14T16:34:30.096Z,2.90
2019-01-14T16:37:00.522Z,2.77
2019-01-14T16:39:31.447Z,3.00
2019-01-14T16:42:04.983Z,2.97
2019-01-14T16:44:37.423Z,3.43
2019-01-14T16:47:08.041Z,3.03
2019-01-14T16:49:40.531Z,4.00
2019-01-14T16:52:11.218Z,4.13
2019-01-14T16:54:41.648Z,2.97
2019-01-14T16:57:12.142Z,2.50
2019-01-14T16:59:42.520Z,2.50
2019-01-14T17:02:13.158Z,4.27
2019-01-14T17:04:43.576Z,2.43
2019-01-14T17:07:14.144Z,2.90
2019-01-14T17:09:44.948Z,10.83
2019-01-14T17:12:15.407Z,4.03
2019-01-14T17:14:45.835Z,4.60
2019-01-14T17:17:16.334Z,2.93
2019-01-14T17:19:46.812Z,3.40
2019-01-14T17:22:18.391Z,4.23
2019-01-14T17:24:49.183Z,8.90
2019-01-14T17:27:19.648Z,12.80
2019-01-14T17:29:50.046Z,8.70
2019-01-14T17:32:20.835Z,6.60
2019-01-14T17:34:51.255Z,9.37
2019-01-14T17:37:21.764Z,4.03
2019-01-14T17:39:52.167Z,6.87
2019-01-14T17:42:23.358Z,3.53
2019-01-14T17:44:53.837Z,2.20
2019-01-14T17:47:24.354Z,2.63
2019-01-14T17:49:54.874Z,3.60
2019-01-14T17:52:25.813Z,3.30
2019-01-14T17:54:56.368Z,2.90
2019-01-14T17:57:27.688Z,2.40
2019-01-14T17:59:58.326Z,2.40
2019-01-14T18:02:28.940Z,2.67
2019-01-14T18:04:59.408Z,3.60
2019-01-14T18:07:32.775Z,2.93
2019-01-14T18:10:06.957Z,2.40
2019-01-14T18:12:40.290Z,2.47
2019-01-14T18:15:11.181Z,3.60
2019-01-14T18:17:45.042Z,6.97
2019-01-14T18:20:17.838Z,5.40
2019-01-14T18:22:48.620Z,2.27
2019-01-14T18:25:19.292Z,2.87
2019-01-14T18:27:49.778Z,2.80
2019-01-14T18:30:21.593Z,2.30
2019-01-14T18:32:52.151Z,2.80
2019-01-14T18:35:22.711Z,2.57
2019-01-14T18:37:53.537Z,1.80
2019-01-14T18:40:24.021Z,2.20
2019-01-14T18:42:54.473Z,2.00
2019-01-14T18:45:25.288Z,2.17
2019-01-14T18:47:55.692Z,2.00
2019-01-14T18:50:26.621Z,2.40
2019-01-14T18:52:57.910Z,2.40
2019-01-14T18:55:28.324Z,3.13
2019-01-14T18:57:58.813Z,3.03
2019-01-14T19:00:29.264Z,3.30
2019-01-14T19:03:00.422Z,3.33
2019-01-14T19:05:30.947Z,2.80
2019-01-14T19:08:01.408Z,2.37
2019-01-14T19:10:32.570Z,3.70
2019-01-14T19:13:03.404Z,2.90
2019-01-14T19:15:34.533Z,2.00
2019-01-14T19:18:05.129Z,2.17
2019-01-14T19:20:39.122Z,2.43
2019-01-14T19:23:09.573Z,2.10
2019-01-14T19:25:40.411Z,1.50
2019-01-14T19:28:13.099Z,1.40
2019-01-14T19:30:46.780Z,2.63
2019-01-14T19:33:19.022Z,1.20
2019-01-14T19:35:49.873Z,1.30
2019-01-14T19:38:26.693Z,1.30
2019-01-14T19:41:02.046Z,1.83
2019-01-14T19:43:32.315Z,1.67
2019-01-14T19:46:04.438Z,2.03
2019-01-14T19:48:40.077Z,1.73
2019-01-14T19:51:11.069Z,3.70
2019-01-14T19:53:45.785Z,2.43
2019-01-14T19:56:20.152Z,2.30
2019-01-14T19:58:52.491Z,1.40
2019-01-14T20:01:25.006Z,1.30
2019-01-14T20:03:57.898Z,1.47
2019-01-14T20:06:30.267Z,2.03
2019-01-14T20:09:01.878Z,3.40
2019-01-14T20:11:35.447Z,1.70
2019-01-14T20:14:07.650Z,2.33
2019-01-14T20:16:43.910Z,1.70
2019-01-14T20:19:15.924Z,1.80
2019-01-14T20:21:48.448Z,1.63
2019-01-14T20:24:22.818Z,1.37
2019-01-14T20:26:59.748Z,1.03
2019-01-14T20:29:30.232Z,1.57
2019-01-14T20:32:00.754Z,1.60
2019-01-14T20:34:33.182Z,1.67
2019-01-14T20:37:07.663Z,1.40
2019-01-14T20:39:40.986Z,1.33
2019-01-14T20:42:11.441Z,1.40
2019-01-14T20:44:45.288Z,1.20
2019-01-14T20:47:16.880Z,1.60
2019-01-14T20:49:50.009Z,1.53
2019-01-14T20:52:21.724Z,1.40
2019-01-14T20:54:54.219Z,1.77
2019-01-14T20:57:27.518Z,1.47
2019-01-14T20:59:59.832Z,1.30
2019-01-14T21:02:31.370Z,1.47
2019-01-14T21:05:05.014Z,2.90
2019-01-14T21:07:37.516Z,2.30
2019-01-14T21:10:09.294Z,1.33
2019-01-14T21:12:39.954Z,1.60
2019-01-14T21:15:12.406Z,1.80
2019-01-14T21:17:45.194Z,1.27
2019-01-14T21:20:20.115Z,3.43
2019-01-14T21:22:52.072Z,2.33
2019-01-14T21:25:23.044Z,1.37
2019-01-14T21:27:56.283Z,12.10
2019-01-14T21:30:29.298Z,2.10
2019-01-14T21:33:01.713Z,2.23
2019-01-14T21:35:34.040Z,2.10
2019-01-14T21:38:06.540Z,2.53
2019-01-14T21:40:37.910Z,2.80
2019-01-14T21:43:09.955Z,2.43
2019-01-14T21:45:43.836Z,1.60
2019-01-14T21:48:18.334Z,1.10
2019-01-14T21:50:49.533Z,1.40
2019-01-14T21:53:20.479Z,1.13
2019-01-14T21:55:54.030Z,1.50
2019-01-14T21:58:25.959Z,1.33
2019-01-14T22:00:56.455Z,1.37
2019-01-14T22:03:30.551Z,1.70
2019-01-14T22:06:01.113Z,1.50
2019-01-14T22:08:34.053Z,1.47
2019-01-14T22:11:07.484Z,1.57
2019-01-14T22:13:38.282Z,1.20
2019-01-14T22:16:11.054Z,1.47
2019-01-14T22:18:44.952Z,1.20
2019-01-14T22:21:18.284Z,1.27
2019-01-14T22:23:53.267Z,1.63
2019-01-14T22:26:25.549Z,1.40
2019-01-14T22:28:56.615Z,1.70
2019-01-14T22:31:32.374Z,2.00
2019-01-14T22:34:03.627Z,1.40
2019-01-14T22:36:37.082Z,1.73
2019-01-14T22:39:08.632Z,1.60
2019-01-14T22:41:45.950Z,1.37
2019-01-14T22:44:16.545Z,1.40
2019-01-14T22:46:47.057Z,1.40
2019-01-14T22:49:17.576Z,1.40
2019-01-14T22:51:48.405Z,1.13
2019-01-14T22:54:20.060Z,1.30
2019-01-14T22:56:51.234Z,1.50
2019-01-14T22:59:27.155Z,1.30
2019-01-14T23:01:57.818Z,1.13
2019-01-14T23:04:31.546Z,1.20
2019-01-14T23:07:06.086Z,1.30
2019-01-14T23:09:41.077Z,1.10
2019-01-14T23:12:11.719Z,1.70
2019-01-14T23:14:48.056Z,1.30
2019-01-14T23:17:18.885Z,1.00
2019-01-14T23:19:53.238Z,1.20
2019-01-14T23:22:26.895Z,0.90
2019-01-14T23:24:57.778Z,1.10
2019-01-14T23:27:31.906Z,1.40
2019-01-14T23:30:05.629Z,1.40
2019-01-14T23:32:42.405Z,1.13
2019-01-14T23:35:13.772Z,1.27
2019-01-14T23:37:47.383Z,0.83
2019-01-14T23:40:18.078Z,1.67
2019-01-14T23:42:51.350Z,2.60
2019-01-14T23:45:23.635Z,1.30
2019-01-14T23:47:56.905Z,1.50
2019-01-14T23:50:30.369Z,1.07
2019-01-14T23:53:02.581Z,1.30
2019-01-14T23:55:36.749Z,1.33
2019-01-14T23:58:10.345Z,1.13
